SHASTA DAM (USBR) (SHA)

Elevation: 1067' · SACRAMENTO R basin · Operator: US Bureau of Reclamation

Provisional data, subject to change.
Query executed Wednesday at 12:01:39   clock

Select a sensor type for a plot of data.
Note: Reservoir Flows are daily averages.

Earlier

Date RES ELE    STORAGE    RES CHG    TOC STO    ABV TOC    OUTFLOW    INFLOW    EVAP    FNF    RIV REL    PPT INC    RAIN    SPILL    DIS PWR   
 FEET   AF   AF   AF   AF   CFS   CFS   CFS   CFS   CFS   INCHES   INCHES   CFS   CFS  
01/12/2016 926.48 1515385 5714 3550950 -2035566 2790 5684 13 5631 0 0.00 22.49 0 2790
01/13/2016 927.99 1537049 21664 3563184 -2026135 1760 12695 13 14590 0 1.71 r 24.20 0 1760
01/14/2016 929.71 1562012 24963 3571458 -2009446 1382 13993 26 14423 0 0.43 24.63 0 1382
01/15/2016 931.24 1584446 22434 3580156 -1995710 1851 13170 9 12309 0 1.29 25.92 0 1851
01/16/2016 932.67 1605620 21174 3589279 -1983657 1753 12441 13 11116 0 0.53 26.45 0 1753
01/17/2016 936.46 1662692 57072 3582896 -1920202 827 29604 4 31555 0 0.98 27.43 0 827
01/18/2016 940.23 1720827 58135 3575212 -1854383 1070 30388 9 33908 0 2.48 29.91 0 1070
01/19/2016 945.30 1800690 79863 3556444 -1755754 1098 41371 9 43490 0 2.19 32.10 0 1098
01/20/2016 948.89 1858775 58085 3548131 -1689356 962 30265 19 30613 0 1.96 34.06 0 962
01/21/2016 951.36 1899501 40726 3549357 -1647750 109 20661 20 20695 0 0.02 34.08 0 109
01/22/2016 954.82 1957579 58078 3540769 -1583190 400 29691 10 30863 0 1.36 35.44 0 400
01/23/2016 959.51 2038279 80700 3518901 -1480622 762 41458 10 42575 0 1.29 36.73 0 762
01/24/2016 962.75 2095094 56815 3510325 -1415231 764 29444 36 28907 0 0.02 36.75 0 764
01/25/2016 965.19 2138566 43472 3509380 -1370814 867 22795 11 21300 0 0.27 37.02 0 867
01/26/2016 967.45 2179395 40829 3508571 -1327310 3533 24154 37 22376 0 0.00 37.02 0 3533
01/27/2016 969.02 2208060 28665 3515600 -1307540 1784 16279 43 14123 0 0.01 37.03 0 1784
01/28/2016 970.45 2234421 26361 3525037 -1290616 1072 14400 38 12669 0 0.00 37.03 0 1072
01/29/2016 972.53 2273137 38716 3526304 -1253168 1077 20602 6 21394 0 1.68 38.71 0 1077
01/30/2016 974.62 2312505 39368 3527888 -1215383 491 20356 17 20658 0 0.43 39.14 0 491
01/31/2016 976.38 2346025 33520 3533683 -1187658 393 17320 28 18134 0 0.42 39.56 0 393
02/01/2016 977.92 2375622 29597 3541153 -1165531 1110 16145 113 15909 0 0.00 39.56 0 1110
02/02/2016 979.20 2400433 24811 3552263 -1151830 1133 13653 11 14302 0 0.07 39.63 0 1133
02/03/2016 980.31 2422083 21650 3564172 -1142089 2192 13113 6 12532 0 0.01 39.64 0 2192
02/04/2016 981.30 2441481 19398 3577748 -1136267 2234 12014 0 10819 0 0.17 39.81 0 2234
02/05/2016 982.10 2457229 15748 3594215 -1136986 2166 10152 46 9898 0 0.00 39.81 0 2166
02/06/2016 982.85 2472064 14835 3611507 -1139443 2086 9606 41 8655 0 0.00 39.81 0 2086
02/07/2016 983.43 2483585 11521 3630909 -1147324 2413 8280 59 8338 0 0.00 39.81 0 2413
02/08/2016 984.08 2496524 12939 3647982 -1151458 3037 9619 59 9944 0 0.00 39.81 0 3037
02/09/2016 984.52 2505326 8802 3667825 -1162499 3452 7955 65 7495 0 0.00 39.81 0 3452
02/10/2016 -- -- -- -- -- -- -- -- -- -- -- -- -- --

Later | Latest

Warning! This data is preliminary and subject to revision.

Show SHA Map | Plot SHA Data | 1 Month SHA Data | Real-Time SHA Data | SHA Info